Weather History for CWCL - November, 2013

Change the Weather History Date:

Tuesday, November 5, 2013

  Actual Average Record
Temperature  
Mean Temperature 27 °F -  
Max Temperature 30 °F 35 °F 51 °F (2012)
Min Temperature 24 °F 23 °F -4 °F (2003)
Degree Days  
Heating Degree Days 38    
Moisture  
Dew Point 23 °F    
Average Humidity 84    
Maximum Humidity 86    
Minimum Humidity 72    
Precipitation  
Precipitation 0.08 in - - ()
Sea Level Pressure  
Sea Level Pressure 29.97 in    
Wind  
Wind Speed 5 mph ()    
Max Wind Speed 9 mph    
Max Gust Speed -    
Visibility 5.7 miles    
Events      
Averages and records for this station are not official NWS values.
T = Trace of Precipitation, MM = Missing Value Source: Averaged Metar Reports

Daily Weather History Graph

Daily Weather History Graph

Search for Another Location

Airport or City:

Trip Planner

Search our weather history database for the weather conditions in past years. The results will help you decide how hot, cold, wet, or windy it might be!

Date:

Astronomy

Nov. 05, 2013 Rise Set
Actual Time 7:06 AM PST 4:32 PM PST
Civil Twilight 6:30 AM PST 5:07 PM PST
Nautical Twilight 5:51 AM PST 5:47 PM PST
Astronomical Twilight 5:12 AM PST 6:25 PM PST
Moon 9:37 AM PST (11/5) 6:28 PM PST (11/5)
Length of Visible Light 10h 36m
Length of Day
9h 26m
Waxing Crescent, 7% of the Moon is Illuminated
Nov 5
Waxing Crescent
Nov 9
First Quarter
Nov 17
Full
Nov 25
Last Quarter
Dec 2
New

Hourly Weather History & Observations

Time (PST) Temp. Windchill Dew Point Humidity Pressure Visibility Wind Dir Wind Speed Gust Speed Precip Events Conditions
12:00 AM 24.8 °F 16.1 °F 21.2 °F 86% 30.05 in 9.0 mi South 8.1 mph - N/A   Overcast
12:21 AM 24.8 °F 17.9 °F 21.2 °F 86% 29.92 in 9.0 mi South 5.8 mph - N/A   Overcast
12:25 AM 24.8 °F 16.1 °F 21.2 °F 86% 29.92 in 9.0 mi South 8.1 mph - N/A   Overcast
12:56 AM 24.8 °F 16.9 °F 21.2 °F 86% 29.92 in 9.0 mi South 6.9 mph - N/A   Overcast
1:00 AM 25 °F - 22 °F 81% 30.04 in 9 mi South 6.9 mph - -   Overcast
1:00 AM 24.8 °F 19.1 °F 21.2 °F 86% 30.04 in 9.0 mi SSE 4.6 mph - N/A   Overcast
1:04 AM 24.8 °F 17.9 °F 21.2 °F 86% 29.92 in 9.0 mi SSE 5.8 mph - N/A   Overcast
1:07 AM 24.8 °F 17.9 °F 21.2 °F 86% 29.91 in 9.0 mi South 5.8 mph - N/A   Overcast
1:16 AM 24.8 °F 15.3 °F 21.2 °F 86% 29.91 in 9.0 mi South 9.2 mph - N/A   Overcast
1:39 AM 24.8 °F 16.9 °F 21.2 °F 86% 29.91 in 9.0 mi South 6.9 mph - N/A   Mostly Cloudy
1:52 AM 24.8 °F 16.1 °F 21.2 °F 86% 29.91 in 9.0 mi South 8.1 mph - N/A   Mostly Cloudy
1:56 AM 24.8 °F 16.1 °F 21.2 °F 86% 29.91 in 9.0 mi South 8.1 mph - N/A   Overcast
2:00 AM 24.8 °F 16.9 °F 21.2 °F 86% 30.04 in 9.0 mi South 6.9 mph - N/A   Mostly Cloudy
2:15 AM 24.8 °F 16.9 °F 21.2 °F 86% 29.91 in 9.0 mi South 6.9 mph - N/A   Scattered Clouds
2:21 AM 24.8 °F 16.9 °F 21.2 °F 86% 29.91 in 9.0 mi South 6.9 mph - N/A   Mostly Cloudy
2:43 AM 24.8 °F 16.1 °F 21.2 °F 86% 29.91 in 9.0 mi South 8.1 mph - N/A   Overcast
2:50 AM 24.8 °F 16.1 °F 21.2 °F 86% 29.91 in 9.0 mi South 8.1 mph - N/A   Mostly Cloudy
2:51 AM 24.8 °F 16.9 °F 21.2 °F 86% 29.91 in 9.0 mi South 6.9 mph - N/A   Mostly Cloudy
2:52 AM 24.8 °F 16.1 °F 21.2 °F 86% 29.91 in 9.0 mi South 8.1 mph - N/A   Mostly Cloudy
2:55 AM 24.8 °F 16.9 °F 21.2 °F 86% 29.91 in 9.0 mi South 6.9 mph - N/A   Mostly Cloudy
3:00 AM 24.8 °F 19.1 °F 21.2 °F 86% 30.04 in 9.0 mi South 4.6 mph - N/A   Overcast
3:06 AM 24.8 °F 16.9 °F 21.2 °F 86% 29.91 in 9.0 mi SSE 6.9 mph - N/A   Mostly Cloudy
3:08 AM 24.8 °F 16.1 °F 21.2 °F 86% 29.91 in 9.0 mi SSE 8.1 mph - N/A   Mostly Cloudy
3:28 AM 24.8 °F 16.9 °F 21.2 °F 86% 29.90 in 9.0 mi South 6.9 mph - N/A   Overcast
3:56 AM 24.8 °F 17.9 °F 21.2 °F 86% 29.91 in 9.0 mi SSE 5.8 mph - N/A   Overcast
3:57 AM 24.8 °F 16.1 °F 21.2 °F 86% 29.91 in 9.0 mi South 8.1 mph - N/A   Overcast
4:00 AM 25 °F - 21 °F 79% 30.04 in 9 mi SSE 6.9 mph - -   Overcast
4:00 AM 24.8 °F 16.9 °F 21.2 °F 86% 30.04 in 9.0 mi SSE 6.9 mph - N/A   Overcast
4:09 AM 24.8 °F 16.9 °F 21.2 °F 86% 29.91 in 9.0 mi South 6.9 mph - N/A   Overcast
4:39 AM 24.8 °F 19.1 °F 21.2 °F 86% 29.90 in 9.0 mi SSE 4.6 mph - N/A   Mostly Cloudy
4:40 AM 24.8 °F 17.9 °F 21.2 °F 86% 29.90 in 9.0 mi SSE 5.8 mph - N/A   Overcast
4:43 AM 24.8 °F 19.1 °F 21.2 °F 86% 29.91 in 9.0 mi South 4.6 mph - N/A   Overcast
4:53 AM 24.8 °F 16.9 °F 21.2 °F 86% 29.91 in 9.0 mi SSE 6.9 mph - N/A   Overcast
4:57 AM 24.8 °F 17.9 °F 21.2 °F 86% 29.91 in 9.0 mi SSE 5.8 mph - N/A   Mostly Cloudy
4:59 AM 24.8 °F 16.9 °F 21.2 °F 86% 29.91 in 9.0 mi SSE 6.9 mph - N/A   Mostly Cloudy
5:00 AM 24.8 °F 19.1 °F 21.2 °F 86% 30.04 in 9.0 mi SSE 4.6 mph - N/A   Mostly Cloudy
5:03 AM 24.8 °F 16.1 °F 21.2 °F 86% 29.91 in 9.0 mi SSE 8.1 mph - N/A   Scattered Clouds
5:04 AM 24.8 °F 15.3 °F 21.2 °F 86% 29.91 in 9.0 mi SSE 9.2 mph - N/A   Mostly Cloudy
5:16 AM 24.8 °F 17.9 °F 21.2 °F 86% 29.90 in 9.0 mi South 5.8 mph - N/A   Mostly Cloudy
5:22 AM 24.8 °F 19.1 °F 21.2 °F 86% 29.90 in 9.0 mi South 4.6 mph - N/A   Mostly Cloudy
5:26 AM 24.8 °F 17.9 °F 21.2 °F 86% 29.90 in 9.0 mi SSE 5.8 mph - N/A   Overcast
5:34 AM 24.8 °F 16.9 °F 21.2 °F 86% 29.90 in 9.0 mi SSE 6.9 mph - N/A   Overcast
5:37 AM 24.8 °F 19.1 °F 21.2 °F 86% 29.90 in 9.0 mi SSE 4.6 mph - N/A   Overcast
5:41 AM 24.8 °F 16.1 °F 21.2 °F 86% 29.90 in 9.0 mi South 8.1 mph - N/A   Overcast
5:54 AM 24.8 °F 17.9 °F 21.2 °F 86% 29.90 in 9.0 mi SSE 5.8 mph - N/A   Overcast
6:00 AM 24.8 °F 20.5 °F 21.2 °F 86% 30.04 in 9.0 mi SE 3.5 mph - N/A   Mostly Cloudy
6:03 AM 24.8 °F 17.9 °F 21.2 °F 86% 29.90 in 9.0 mi SSE 5.8 mph - N/A   Overcast
6:17 AM 24.8 °F 17.9 °F 21.2 °F 86% 29.90 in 9.0 mi SSE 5.8 mph - N/A   Scattered Clouds
6:34 AM 24.8 °F 19.1 °F 21.2 °F 86% 29.91 in 9.0 mi South 4.6 mph - N/A   Mostly Cloudy
6:43 AM 24.8 °F 16.9 °F 21.2 °F 86% 29.91 in 9.0 mi SSE 6.9 mph - N/A   Overcast
7:00 AM 25 °F - 21 °F 79% 30.05 in 9 mi SSE 5.8 mph - -   Overcast
7:00 AM 24.8 °F 17.9 °F 21.2 °F 86% 30.05 in 9.0 mi SSE 5.8 mph - N/A   Overcast
7:01 AM 24.8 °F 16.9 °F 21.2 °F 86% 29.91 in 9.0 mi SSE 6.9 mph - N/A   Overcast
7:11 AM 24.8 °F 19.1 °F 21.2 °F 86% 29.91 in 9.0 mi SE 4.6 mph - N/A   Overcast
7:21 AM 24.8 °F 16.9 °F 21.2 °F 86% 29.91 in 9.0 mi SSE 6.9 mph - N/A   Overcast
7:27 AM 24.8 °F 19.1 °F 21.2 °F 86% 29.91 in 9.0 mi SSE 4.6 mph - N/A   Mostly Cloudy
7:38 AM 24.8 °F 16.9 °F 21.2 °F 86% 29.91 in 9.0 mi SSE 6.9 mph - N/A   Mostly Cloudy
7:40 AM 24.8 °F 16.1 °F 21.2 °F 86% 29.91 in 9.0 mi SSE 8.1 mph - N/A   Mostly Cloudy
7:59 AM 24.8 °F 16.9 °F 21.2 °F 86% 29.92 in 8.0 mi SSE 6.9 mph - N/A   Overcast
8:00 AM 24.8 °F 16.1 °F 21.2 °F 86% 30.06 in 8.0 mi SSE 8.1 mph - N/A   Overcast
8:09 AM 26.6 °F 21.2 °F 23.0 °F 86% 29.92 in 7.0 mi SE 4.6 mph - N/A   Overcast
8:41 AM 26.6 °F 19.1 °F 23.0 °F 86% 29.92 in 9.0 mi SSE 6.9 mph - N/A   Overcast
8:42 AM 26.6 °F 19.1 °F 23.0 °F 86% 29.92 in 9.0 mi SSE 6.9 mph - N/A   Overcast
8:59 AM 26.6 °F 18.2 °F 23.0 °F 86% 29.92 in 9.0 mi SSE 8.1 mph - N/A   Overcast
9:00 AM 26.6 °F 18.2 °F 23.0 °F 86% 30.05 in 9.0 mi SSE 8.1 mph - N/A   Overcast
9:43 AM 28.4 °F 22.2 °F 23.0 °F 80% 29.92 in 9.0 mi SSE 5.8 mph - N/A   Overcast
10:00 AM 28 °F - 23 °F 75% 30.05 in 9 mi SSE 8.1 mph - -   Overcast
10:00 AM 28.4 °F 20.4 °F 23.0 °F 80% 30.05 in 9.0 mi SSE 8.1 mph - N/A   Overcast
10:41 AM 30.2 °F 21.9 °F 24.8 °F 80% 29.92 in 9.0 mi SE 9.2 mph - N/A   Overcast
10:54 AM 30.2 °F 22.6 °F 23.0 °F 75% 29.92 in 9.0 mi SSE 8.1 mph - N/A   Overcast
11:00 AM 30.2 °F 22.6 °F 23.0 °F 75% 30.06 in 9.0 mi SSE 8.1 mph - N/A   Overcast
11:04 AM 30.2 °F 21.9 °F 24.8 °F 80% 29.93 in 9.0 mi SSE 9.2 mph - N/A   Overcast
12:00 PM 30.2 °F 23.4 °F 23.0 °F 75% 30.05 in 9.0 mi South 6.9 mph - N/A   Overcast
12:39 PM 30.2 °F - 23.0 °F 75% 29.92 in 9.0 mi South 2.3 mph - N/A   Overcast
12:53 PM 30.2 °F - 24.8 °F 80% 29.92 in 9.0 mi SSE 2.3 mph - N/A   Overcast
1:00 PM 30 °F - 24 °F 72% 30.05 in 9 mi SSE 3.5 mph - -   Overcast
1:00 PM 30.2 °F 26.7 °F 24.8 °F 80% 30.05 in 9.0 mi SSE 3.5 mph - N/A   Overcast
1:58 PM 30.2 °F - 24.8 °F 80% 29.94 in 2.5 mi South 2.3 mph - N/A   Overcast
2:00 PM 30.2 °F - 24.8 °F 80% 30.07 in 2.1 mi South 2.3 mph - N/A   Overcast
2:06 PM 30.2 °F 26.7 °F 24.8 °F 80% 29.94 in 2.0 mi South 3.5 mph - N/A   Scattered Clouds
2:28 PM 30.2 °F - 24.8 °F 80% 29.94 in 1.8 mi SSE 2.3 mph - N/A   Mostly Cloudy
2:33 PM 30.2 °F - 24.8 °F 80% 29.94 in 1.4 mi Calm Calm - N/A   Overcast
2:39 PM 30.2 °F - 24.8 °F 80% 29.94 in 1.0 mi Calm Calm - N/A   Mostly Cloudy
2:43 PM 30.2 °F - 24.8 °F 80% 29.94 in 0.8 mi South 2.3 mph - N/A   Overcast
2:58 PM 28.4 °F - 24.8 °F 86% 29.95 in 1.0 mi South 2.3 mph - N/A   Scattered Clouds
3:00 PM 28.4 °F - 24.8 °F 86% 30.08 in 1.1 mi South 2.3 mph - N/A   Scattered Clouds
3:02 PM 28.4 °F - 24.8 °F 86% 29.95 in 1.1 mi SSW 2.3 mph - N/A   Mostly Cloudy
3:04 PM 30.2 °F - 24.8 °F 80% 29.95 in 1.1 mi SSW 2.3 mph - N/A   Overcast
3:12 PM 28.4 °F - 24.8 °F 86% 29.95 in 1.4 mi Calm Calm - N/A   Mostly Cloudy
3:13 PM 30.2 °F - 24.8 °F 80% 29.95 in 1.4 mi South 2.3 mph - N/A   Overcast
3:15 PM 30.2 °F - 24.8 °F 80% 29.95 in 1.4 mi South 2.3 mph - N/A   Overcast
3:18 PM 30.2 °F - 24.8 °F 80% 29.95 in 1.6 mi Calm Calm - N/A   Overcast
3:21 PM 28.4 °F - 24.8 °F 86% 29.95 in 1.2 mi Calm Calm - N/A   Overcast
3:25 PM 28.4 °F - 24.8 °F 86% 29.95 in 1.0 mi Calm Calm - N/A   Overcast
3:29 PM 28.4 °F - 24.8 °F 86% 29.95 in 0.8 mi South 2.3 mph - N/A   Unknown
3:31 PM 28.4 °F - 24.8 °F 86% 29.95 in 0.6 mi South 2.3 mph - N/A   Unknown
3:57 PM 28.4 °F - 24.8 °F 86% 29.96 in 1.0 mi South 2.3 mph - N/A   Overcast
4:00 PM 29 °F - 25 °F 80% 30.09 in 1 mi South 2.3 mph - -   Overcast
4:00 PM 28.4 °F - 24.8 °F 86% 30.09 in 1.0 mi SSW 2.3 mph - N/A   Overcast
4:03 PM 28.4 °F - 24.8 °F 86% 29.96 in 1.0 mi South 2.3 mph - N/A   Overcast
4:08 PM 28.4 °F 24.6 °F 24.8 °F 86% 29.96 in 0.6 mi South 3.5 mph - N/A   Overcast
4:38 PM 28.4 °F - 24.8 °F 86% 29.97 in 0.8 mi South 2.3 mph - N/A   Overcast
4:39 PM 28.4 °F - 24.8 °F 86% 29.97 in 0.6 mi Calm Calm - N/A   Overcast
5:00 PM 28.4 °F - 24.8 °F 86% 30.11 in 0.6 mi SSW 2.3 mph - N/A   Overcast
5:17 PM 28.4 °F 24.6 °F 24.8 °F 86% 29.98 in 0.4 mi South 3.5 mph - N/A   Overcast
5:38 PM 28.4 °F - 24.8 °F 86% 29.98 in 0.5 mi South 2.3 mph - N/A   Overcast
6:00 PM 28.4 °F - 24.8 °F 86% 30.13 in 0.8 mi South 2.3 mph - N/A   Overcast
6:04 PM 28.4 °F - 24.8 °F 86% 29.99 in 0.6 mi South 2.3 mph - N/A   Overcast
6:24 PM 28.4 °F - 24.8 °F 86% 30.01 in 1.0 mi Calm Calm - N/A   Overcast
6:34 PM 28.4 °F - 24.8 °F 86% 30.01 in 1.0 mi SSE 2.3 mph - N/A   Overcast
6:48 PM 28.4 °F 24.6 °F 24.8 °F 86% 30.01 in 1.5 mi South 3.5 mph - N/A   Overcast
6:51 PM 28.4 °F 24.6 °F 24.8 °F 86% 30.01 in 1.4 mi South 3.5 mph - N/A   Overcast
7:00 PM 28 °F - 25 °F 84% 30.15 in 1 mi South 3.5 mph - -   Overcast
7:00 PM 28.4 °F 24.6 °F 24.8 °F 86% 30.15 in 1.0 mi South 3.5 mph - N/A   Overcast
7:22 PM 28.4 °F - 24.8 °F 86% 30.01 in 1.0 mi South 2.3 mph - N/A   Overcast
7:25 PM 28.4 °F 24.6 °F 24.8 °F 86% 30.02 in 0.6 mi South 3.5 mph - N/A   Overcast
7:40 PM 28.4 °F - 24.8 °F 86% 30.02 in 0.4 mi South 2.3 mph - N/A   Overcast
7:50 PM 28.4 °F - 24.8 °F 86% 30.02 in 0.1 mi South 2.3 mph - N/A   Overcast
8:00 PM 28.4 °F 24.6 °F 24.8 °F 86% 30.16 in 0.2 mi South 3.5 mph - N/A   Overcast
8:12 PM 28.4 °F 23.3 °F 24.8 °F 86% 30.02 in 0.6 mi South 4.6 mph - N/A   Overcast
8:19 PM 28.4 °F 23.3 °F 24.8 °F 86% 30.02 in 0.4 mi SSW 4.6 mph - N/A   Overcast
8:38 PM 28.4 °F 23.3 °F 24.8 °F 86% 30.03 in 0.1 mi South 4.6 mph - N/A   Overcast
9:00 PM 28.4 °F 23.3 °F 24.8 °F 86% 30.17 in 0.4 mi South 4.6 mph - N/A   Overcast
9:10 PM 28.4 °F - 24.8 °F 86% 30.04 in 0.8 mi South 2.3 mph - N/A   Overcast
9:21 PM 28.4 °F 24.6 °F 24.8 °F 86% 30.04 in 0.6 mi South 3.5 mph - N/A   Overcast
9:34 PM 28.4 °F 22.2 °F 24.8 °F 86% 30.05 in 0.4 mi South 5.8 mph - N/A   Overcast
10:00 PM 28 °F - 25 °F 84% 30.18 in 0 mi South 3.5 mph - -   Overcast
10:00 PM 28.4 °F 24.6 °F 24.8 °F 86% 30.18 in 0.2 mi South 3.5 mph - N/A   Overcast
10:04 PM 28.4 °F 22.2 °F 24.8 °F 86% 30.05 in 0.1 mi South 5.8 mph - N/A   Overcast
11:00 PM 28.4 °F 23.3 °F 24.8 °F 86% 30.19 in 0.1 mi South 4.6 mph - N/A   Overcast